Time;durP1;ratioP1;P1;durP2;ratioP2;P2;SDS_P1;SDS_P2;PMS_P1;PMS_P2;Temp;Humidity;BMP_temperature;BMP_pressure;BME280_temperature;BME280_humidity;BME280_pressure;Samples;Min_cycle;Max_cycle;Signal;HPM_P1;HPM_P2
2022/05/30 00:00:28;;;;;;;3.35;0.70;;;8.60;99.90;;;;;;5039084;28;20049;-43
2022/05/30 00:02:54;;;;;;;4.30;0.90;;;8.60;99.90;;;;;;5017278;28;20052;-46
2022/05/30 00:05:23;;;;;;;2.25;0.85;;;8.60;99.90;;;;;;5038427;28;20118;-44
2022/05/30 00:07:49;;;;;;;4.75;0.90;;;8.50;99.90;;;;;;5042921;28;20406;-46
2022/05/30 00:10:16;;;;;;;2.28;1.27;;;8.50;99.90;;;;;;5022463;28;20457;-45
2022/05/30 00:12:43;;;;;;;4.15;0.88;;;8.40;99.90;;;;;;5023111;28;20124;-42
2022/05/30 00:15:12;;;;;;;4.65;1.20;;;8.30;99.90;;;;;;5044711;28;20049;-45
2022/05/30 00:17:38;;;;;;;3.88;2.08;;;8.20;99.90;;;;;;5044922;28;20056;-43
2022/05/30 00:20:09;;;;;;;5.50;1.02;;;8.20;99.90;;;;;;5009696;28;20045;-49
2022/05/30 00:22:34;;;;;;;2.50;0.88;;;8.10;99.90;;;;;;5026330;28;20056;-44
2022/05/30 00:25:00;;;;;;;3.65;0.90;;;8.00;99.90;;;;;;5043814;28;20068;-46
2022/05/30 00:27:26;;;;;;;3.88;0.73;;;8.00;99.90;;;;;;5043128;28;20052;-44
2022/05/30 00:29:53;;;;;;;1.88;0.82;;;7.90;99.90;;;;;;5043185;28;20124;-43
2022/05/30 00:32:20;;;;;;;4.15;0.98;;;7.80;99.90;;;;;;5043683;28;20040;-47
2022/05/30 00:34:46;;;;;;;2.53;1.17;;;7.80;99.90;;;;;;5043559;28;20057;-47
2022/05/30 00:37:11;;;;;;;2.67;0.85;;;7.80;99.90;;;;;;5043905;28;20532;-45
2022/05/30 00:39:37;;;;;;;3.80;1.20;;;7.90;99.90;;;;;;5035757;28;20135;-45
2022/05/30 00:42:13;;;;;;;3.25;0.85;;;7.90;99.90;;;;;;5024977;28;20463;-45
2022/05/30 00:44:44;;;;;;;2.47;0.95;;;8.00;99.90;;;;;;5024276;28;20050;-45
2022/05/30 00:47:10;;;;;;;5.70;1.27;;;8.10;99.90;;;;;;5044181;28;20518;-46
2022/05/30 00:49:38;;;;;;;6.72;1.42;;;8.10;99.90;;;;;;5043802;28;20060;-45
2022/05/30 00:52:07;;;;;;;5.03;1.40;;;8.20;99.90;;;;;;5043723;28;20107;-46
2022/05/30 00:54:40;;;;;;;4.68;1.48;;;8.20;99.90;;;;;;5043743;28;20048;-48
2022/05/30 00:57:23;;;;;;;3.73;1.30;;;8.30;99.90;;;;;;5042924;28;20052;-45
2022/05/30 00:59:54;;;;;;;4.28;1.50;;;8.20;99.90;;;;;;5043033;28;20295;-44
2022/05/30 01:02:21;;;;;;;4.10;1.55;;;8.30;99.90;;;;;;5022160;28;20093;-46
2022/05/30 01:07:32;;;;;;;2.60;1.50;;;8.30;99.90;;;;;;5039026;28;20490;-45
2022/05/30 01:10:00;;;;;;;3.97;1.90;;;8.30;99.90;;;;;;5043323;28;20053;-45
2022/05/30 01:12:52;;;;;;;5.72;1.73;;;8.30;99.90;;;;;;5043359;28;20048;-47
2022/05/30 01:15:23;;;;;;;5.78;1.50;;;8.30;99.90;;;;;;5043610;28;20109;-46
2022/05/30 01:17:51;;;;;;;3.40;1.58;;;8.30;99.90;;;;;;5044331;28;20474;-44
2022/05/30 01:20:36;;;;;;;7.57;1.85;;;8.20;99.90;;;;;;5044968;28;20055;-49
2022/05/30 01:23:27;;;;;;;7.00;2.17;;;8.20;99.90;;;;;;5027263;28;20059;-45
2022/05/30 01:26:11;;;;;;;6.90;2.08;;;8.20;99.90;;;;;;5026692;28;20127;-50
2022/05/30 01:29:04;;;;;;;3.38;1.65;;;8.10;99.90;;;;;;5043593;28;20045;-44
2022/05/30 01:31:30;;;;;;;6.60;1.67;;;8.00;99.90;;;;;;5043212;28;20063;-46
2022/05/30 01:33:56;;;;;;;4.28;2.00;;;7.90;99.90;;;;;;5043722;28;20044;-45
2022/05/30 01:36:25;;;;;;;7.05;2.22;;;7.80;99.90;;;;;;5043184;28;20094;-44
2022/05/30 01:38:51;;;;;;;6.13;2.15;;;7.80;99.90;;;;;;5043299;28;20048;-43
2022/05/30 01:41:16;;;;;;;4.93;2.55;;;7.70;99.90;;;;;;5042396;28;20049;-44
2022/05/30 01:43:45;;;;;;;5.43;2.35;;;7.70;99.90;;;;;;5042048;28;20044;-45
2022/05/30 01:46:17;;;;;;;7.00;2.42;;;7.60;99.90;;;;;;5042103;28;20059;-45
2022/05/30 01:48:43;;;;;;;5.35;2.40;;;7.60;99.90;;;;;;5043454;28;20496;-48
2022/05/30 01:51:09;;;;;;;3.75;2.20;;;7.50;99.90;;;;;;5042353;28;20044;-47
2022/05/30 01:53:40;;;;;;;8.45;2.28;;;7.50;99.90;;;;;;5042226;28;20057;-43
2022/05/30 01:56:06;;;;;;;4.15;2.15;;;7.40;99.90;;;;;;5041647;28;20526;-44
2022/05/30 01:58:35;;;;;;;5.80;2.88;;;7.40;99.90;;;;;;5042439;28;20061;-44
2022/05/30 02:01:12;;;;;;;4.72;2.50;;;7.30;99.90;;;;;;5041791;28;20044;-44
2022/05/30 02:03:37;;;;;;;3.75;2.30;;;7.20;99.90;;;;;;5042022;28;20048;-44
2022/05/30 02:06:03;;;;;;;5.88;2.47;;;7.20;99.90;;;;;;5041860;28;20049;-46
2022/05/30 02:08:29;;;;;;;6.35;2.58;;;7.10;99.90;;;;;;5023384;28;20096;-42
2022/05/30 02:10:55;;;;;;;7.25;2.30;;;7.10;99.90;;;;;;5042222;28;20048;-47
2022/05/30 02:13:21;;;;;;;6.50;2.30;;;7.10;99.90;;;;;;5041935;28;20539;-46
2022/05/30 02:18:31;;;;;;;6.65;2.28;;;7.00;99.90;;;;;;5042407;28;20090;-45
2022/05/30 02:20:57;;;;;;;8.52;2.08;;;7.00;99.90;;;;;;5043117;28;20037;-44
2022/05/30 02:23:23;;;;;;;4.53;2.17;;;6.90;99.90;;;;;;5041901;28;20037;-47
2022/05/30 02:25:48;;;;;;;3.78;2.17;;;6.90;99.90;;;;;;5023701;28;20642;-45
2022/05/30 02:28:15;;;;;;;7.22;2.38;;;6.90;99.90;;;;;;5024031;28;20060;-44
2022/05/30 02:30:41;;;;;;;4.70;1.95;;;6.90;99.90;;;;;;5041911;28;20561;-44
2022/05/30 02:38:36;;;;;;;3.28;2.15;;;6.90;99.90;;;;;;5040555;28;20095;-45
2022/05/30 02:41:02;;;;;;;4.05;2.17;;;6.90;99.90;;;;;;5021452;28;20049;-48
2022/05/30 02:43:27;;;;;;;7.85;2.55;;;7.00;99.90;;;;;;5042245;28;20206;-46
2022/05/30 02:45:54;;;;;;;8.93;1.90;;;7.10;99.90;;;;;;5040534;28;20069;-46
2022/05/30 02:48:21;;;;;;;5.47;2.30;;;7.10;99.90;;;;;;5018575;28;20057;-45
2022/05/30 02:50:46;;;;;;;5.88;2.20;;;7.10;99.90;;;;;;5038588;28;20045;-47
2022/05/30 02:53:12;;;;;;;5.57;2.13;;;7.10;99.90;;;;;;5041029;28;20056;-45
2022/05/30 02:55:38;;;;;;;5.97;2.70;;;7.10;99.90;;;;;;5041561;28;20045;-43
2022/05/30 02:58:04;;;;;;;6.80;2.50;;;7.20;99.90;;;;;;5023165;28;20055;-44
2022/05/30 03:00:35;;;;;;;7.97;3.13;;;7.20;99.90;;;;;;5041420;28;20048;-42
2022/05/30 03:03:01;;;;;;;9.05;3.22;;;7.20;99.90;;;;;;5019434;28;20136;-44
2022/05/30 03:05:27;;;;;;;6.50;2.60;;;7.20;99.90;;;;;;5039307;28;20101;-45
2022/05/30 03:07:52;;;;;;;9.07;3.20;;;7.20;99.90;;;;;;5041894;28;20648;-45
2022/05/30 03:10:18;;;;;;;9.75;3.33;;;7.20;99.90;;;;;;5032840;28;20049;-46
2022/05/30 03:12:44;;;;;;;8.30;2.83;;;7.20;99.90;;;;;;5040770;28;20052;-46
2022/05/30 03:15:10;;;;;;;5.53;3.35;;;7.30;99.90;;;;;;5040959;28;20107;-44
2022/05/30 03:17:35;;;;;;;7.30;3.17;;;7.30;99.90;;;;;;5018793;28;20132;-44
2022/05/30 03:20:01;;;;;;;7.07;3.33;;;7.40;99.90;;;;;;5002371;28;20061;-44
2022/05/30 03:22:27;;;;;;;6.47;3.53;;;7.40;99.90;;;;;;5040673;28;20052;-46
2022/05/30 03:24:52;;;;;;;8.52;3.75;;;7.40;99.90;;;;;;5018916;28;20057;-45
2022/05/30 03:27:18;;;;;;;6.95;3.80;;;7.50;99.90;;;;;;5038893;28;20421;-48
2022/05/30 03:29:44;;;;;;;5.10;3.25;;;7.60;99.90;;;;;;5041031;28;20102;-46
2022/05/30 03:32:10;;;;;;;9.93;3.50;;;7.60;99.90;;;;;;5040622;28;20044;-45
2022/05/30 03:34:36;;;;;;;6.55;3.45;;;7.60;99.90;;;;;;5040706;28;20095;-44
2022/05/30 03:37:01;;;;;;;6.65;3.60;;;7.60;99.90;;;;;;5041576;28;20057;-45
2022/05/30 03:39:27;;;;;;;7.65;3.78;;;7.60;99.90;;;;;;5041321;28;21431;-48
2022/05/30 03:41:53;;;;;;;6.35;3.38;;;7.60;99.90;;;;;;5040458;28;20049;-42
2022/05/30 03:44:18;;;;;;;8.90;3.60;;;7.60;99.90;;;;;;5041082;28;20060;-47
2022/05/30 03:46:44;;;;;;;9.13;3.58;;;7.70;99.90;;;;;;5041145;28;20410;-49
2022/05/30 03:49:11;;;;;;;9.45;3.53;;;7.70;99.90;;;;;;5043719;28;20543;-47
2022/05/30 03:51:37;;;;;;;5.57;3.80;;;7.80;99.90;;;;;;5048606;28;20045;-47
2022/05/30 03:54:03;;;;;;;9.57;3.75;;;7.90;99.90;;;;;;5046107;28;20063;-49
2022/05/30 03:56:32;;;;;;;7.00;3.75;;;7.90;99.90;;;;;;5045655;28;20691;-49
2022/05/30 03:58:57;;;;;;;9.15;4.05;;;8.00;99.90;;;;;;5045348;28;20614;-47
2022/05/30 04:01:24;;;;;;;5.18;3.30;;;8.40;99.90;;;;;;5044117;28;20044;-46
2022/05/30 04:03:50;;;;;;;6.05;2.70;;;9.30;99.90;;;;;;5044397;28;20044;-49
2022/05/30 04:06:15;;;;;;;7.65;2.60;;;10.30;99.90;;;;;;5025797;28;20099;-44
2022/05/30 04:08:56;;;;;;;3.17;2.20;;;11.10;99.90;;;;;;5044853;28;20493;-46
2022/05/30 04:11:28;;;;;;;5.22;2.30;;;11.40;99.90;;;;;;5044328;28;20408;-44
2022/05/30 04:13:54;;;;;;;5.82;2.28;;;11.40;99.90;;;;;;5023670;28;20057;-44
2022/05/30 04:16:20;;;;;;;4.22;2.08;;;11.30;99.90;;;;;;5044816;28;20048;-45
2022/05/30 04:18:45;;;;;;;4.05;2.70;;;10.90;99.90;;;;;;5044181;28;20175;-46
2022/05/30 04:21:12;;;;;;;5.05;2.70;;;10.60;99.90;;;;;;5041907;28;20052;-48
2022/05/30 04:23:42;;;;;;;4.90;2.40;;;10.20;99.90;;;;;;5043978;28;20091;-44
2022/05/30 04:26:11;;;;;;;4.03;2.58;;;10.00;99.90;;;;;;5044968;28;20084;-42
2022/05/30 04:28:36;;;;;;;4.28;2.25;;;9.80;99.90;;;;;;5043607;28;20377;-44
2022/05/30 04:31:08;;;;;;;7.57;2.90;;;9.70;99.90;;;;;;5043698;28;20130;-43
2022/05/30 04:33:38;;;;;;;5.82;2.40;;;9.50;99.90;;;;;;5025757;28;20057;-45
2022/05/30 04:36:07;;;;;;;6.43;2.85;;;9.50;99.90;;;;;;5044702;28;20052;-46
2022/05/30 04:38:33;;;;;;;5.68;2.70;;;9.40;99.90;;;;;;5040808;28;20053;-43
2022/05/30 04:41:03;;;;;;;6.97;2.80;;;9.30;99.90;;;;;;5040907;28;20550;-43
2022/05/30 04:43:37;;;;;;;5.88;2.85;;;9.30;99.90;;;;;;5044404;28;20060;-45
2022/05/30 04:46:12;;;;;;;5.30;2.67;;;9.30;99.90;;;;;;5044766;28;20048;-45
2022/05/30 04:48:38;;;;;;;7.47;2.42;;;9.30;99.90;;;;;;5038294;28;20057;-42
2022/05/30 04:51:04;;;;;;;6.07;2.15;;;9.30;99.90;;;;;;5044776;28;20094;-47
2022/05/30 04:53:31;;;;;;;7.57;2.72;;;9.40;99.90;;;;;;5044928;28;20048;-44
2022/05/30 04:55:57;;;;;;;4.80;2.38;;;9.40;99.90;;;;;;5045214;28;20052;-46
2022/05/30 04:58:32;;;;;;;5.28;2.40;;;9.50;99.90;;;;;;5044640;28;20082;-42
2022/05/30 05:01:05;;;;;;;4.07;2.53;;;9.60;99.90;;;;;;5044795;28;20179;-43
2022/05/30 05:03:32;;;;;;;5.25;2.60;;;9.70;99.90;;;;;;5027547;28;20094;-45
2022/05/30 05:06:09;;;;;;;6.25;3.17;;;9.80;99.90;;;;;;5029635;28;20091;-49
2022/05/30 05:08:41;;;;;;;5.95;3.67;;;9.80;99.90;;;;;;5043947;28;20132;-48
2022/05/30 05:11:18;;;;;;;6.70;3.20;;;9.80;99.90;;;;;;5044095;28;20053;-41
2022/05/30 05:13:47;;;;;;;6.72;3.30;;;9.80;99.90;;;;;;5044356;28;20118;-48
2022/05/30 05:16:21;;;;;;;7.55;3.55;;;9.90;99.90;;;;;;5044644;28;20142;-49
2022/05/30 05:18:47;;;;;;;5.97;2.58;;;9.90;99.90;;;;;;5021293;28;20060;-46
2022/05/30 05:21:19;;;;;;;7.63;2.80;;;9.90;99.90;;;;;;5025581;28;20055;-46
2022/05/30 05:23:45;;;;;;;5.93;3.15;;;10.00;99.90;;;;;;5042496;28;20578;-46
2022/05/30 05:26:11;;;;;;;6.70;2.70;;;10.00;99.90;;;;;;5022728;28;20057;-44
2022/05/30 05:28:38;;;;;;;6.50;2.70;;;10.10;99.90;;;;;;5042381;28;20044;-44
2022/05/30 05:31:07;;;;;;;8.32;3.47;;;10.40;99.90;;;;;;5024945;28;20050;-44
2022/05/30 05:33:32;;;;;;;4.60;2.53;;;10.70;99.90;;;;;;5043312;28;20052;-45
2022/05/30 05:36:04;;;;;;;4.82;3.22;;;11.20;99.90;;;;;;5043380;28;20057;-44
2022/05/30 05:38:29;;;;;;;5.55;2.85;;;11.80;99.90;;;;;;5039209;28;20041;-45
2022/05/30 05:40:55;;;;;;;6.45;3.22;;;12.20;99.90;;;;;;5041261;28;20053;-47
2022/05/30 05:43:22;;;;;;;4.80;2.55;;;12.30;99.90;;;;;;5044858;28;20131;-44
2022/05/30 05:45:48;;;;;;;3.85;2.67;;;12.50;99.90;;;;;;5023876;28;20069;-45
2022/05/30 05:48:14;;;;;;;4.78;1.80;;;12.80;99.90;;;;;;5043442;28;20415;-44
2022/05/30 05:50:42;;;;;;;3.47;1.73;;;13.00;99.90;;;;;;5042962;28;20183;-45
2022/05/30 05:53:09;;;;;;;3.58;2.15;;;13.30;99.90;;;;;;5021449;28;20503;-45
2022/05/30 05:55:34;;;;;;;2.30;1.02;;;13.50;99.90;;;;;;5039344;28;20117;-47
2022/05/30 05:58:01;;;;;;;2.15;0.93;;;13.50;99.90;;;;;;5042495;28;20049;-45
2022/05/30 06:00:27;;;;;;;2.88;0.93;;;13.60;99.90;;;;;;5023902;28;20052;-44
2022/05/30 06:02:53;;;;;;;2.35;0.88;;;13.60;99.90;;;;;;5043255;28;20049;-44
2022/05/30 06:05:19;;;;;;;2.50;1.17;;;13.80;99.90;;;;;;5042929;28;20556;-46
2022/05/30 06:07:45;;;;;;;3.20;1.00;;;13.90;99.90;;;;;;5042744;28;20053;-49
2022/05/30 06:10:14;;;;;;;2.78;0.70;;;14.20;99.90;;;;;;5023411;28;20128;-47
2022/05/30 06:12:45;;;;;;;2.58;0.80;;;14.50;99.90;;;;;;5042252;28;20053;-46
2022/05/30 06:15:17;;;;;;;1.50;0.80;;;14.60;99.90;;;;;;5043137;28;20626;-46
2022/05/30 06:17:44;;;;;;;2.17;0.70;;;14.70;99.90;;;;;;5024960;28;20063;-48
2022/05/30 06:20:14;;;;;;;4.05;0.82;;;14.60;99.90;;;;;;5026253;28;20059;-46
2022/05/30 06:22:45;;;;;;;2.22;0.75;;;15.40;99.90;;;;;;5044785;28;20408;-46
2022/05/30 06:25:11;;;;;;;2.00;0.70;;;17.00;99.90;;;;;;5043128;28;20044;-49
2022/05/30 06:27:38;;;;;;;1.90;0.70;;;18.60;99.90;;;;;;5042098;28;20067;-45
2022/05/30 06:30:05;;;;;;;1.13;0.55;;;19.40;99.90;;;;;;5018485;28;20102;-46
2022/05/30 06:32:30;;;;;;;0.73;0.52;;;19.10;99.90;;;;;;5041339;28;20041;-46
2022/05/30 06:34:56;;;;;;;1.50;0.75;;;18.50;99.90;;;;;;5023851;28;20134;-47
2022/05/30 06:37:23;;;;;;;1.55;0.63;;;18.30;99.90;;;;;;5022482;28;20048;-47
2022/05/30 06:39:52;;;;;;;2.72;0.93;;;18.60;99.90;;;;;;5021348;28;20556;-44
2022/05/30 06:42:18;;;;;;;2.33;0.63;;;19.00;99.90;;;;;;5020062;28;20172;-47
2022/05/30 06:44:44;;;;;;;3.22;0.80;;;19.80;99.90;;;;;;5041368;28;20048;-45
2022/05/30 06:47:10;;;;;;;1.23;0.60;;;21.10;98.60;;;;;;5041095;28;20055;-47
2022/05/30 06:49:36;;;;;;;2.85;0.70;;;21.60;96.40;;;;;;5041666;28;20040;-45
2022/05/30 06:52:02;;;;;;;2.15;0.70;;;22.20;96.50;;;;;;5042133;28;20470;-45
2022/05/30 06:54:28;;;;;;;2.92;0.90;;;22.80;95.10;;;;;;5022508;28;20049;-45
2022/05/30 06:59:41;;;;;;;2.50;1.08;;;23.00;91.20;;;;;;5039063;28;20107;-48
2022/05/30 07:02:10;;;;;;;2.03;0.80;;;22.20;92.90;;;;;;5023243;28;20151;-46
2022/05/30 07:04:36;;;;;;;1.65;0.85;;;22.20;92.80;;;;;;5042118;28;20532;-45
2022/05/30 07:07:05;;;;;;;1.65;0.63;;;21.40;93.40;;;;;;5042173;28;20041;-48
2022/05/30 07:09:31;;;;;;;1.73;0.90;;;20.20;93.60;;;;;;5039454;28;20044;-47
2022/05/30 07:11:58;;;;;;;1.83;0.63;;;19.20;94.80;;;;;;5018033;28;20052;-45
2022/05/30 07:14:24;;;;;;;1.92;0.70;;;18.00;95.70;;;;;;5039971;28;20037;-48
2022/05/30 07:16:49;;;;;;;3.30;1.35;;;17.30;97.10;;;;;;5040811;28;20577;-47
2022/05/30 07:19:17;;;;;;;3.65;0.90;;;16.60;98.10;;;;;;5021970;28;20071;-49
2022/05/30 07:21:42;;;;;;;4.13;1.00;;;16.10;99.50;;;;;;5041073;28;20053;-45
2022/05/30 07:24:12;;;;;;;3.20;0.80;;;15.60;99.90;;;;;;5040229;28;20118;-43
2022/05/30 07:26:38;;;;;;;2.03;0.77;;;15.10;99.90;;;;;;5041020;28;20308;-47
2022/05/30 07:29:09;;;;;;;3.20;0.70;;;14.60;99.90;;;;;;5040769;28;20131;-49
2022/05/30 07:31:35;;;;;;;2.67;1.33;;;14.20;99.90;;;;;;5041301;28;20051;-46
2022/05/30 07:34:01;;;;;;;2.65;0.70;;;13.70;99.90;;;;;;5020688;28;20053;-45
2022/05/30 07:36:29;;;;;;;2.22;0.50;;;13.30;99.90;;;;;;5044116;28;20052;-45
2022/05/30 07:38:56;;;;;;;1.70;0.80;;;13.00;99.90;;;;;;5041166;28;20076;-50
2022/05/30 07:41:27;;;;;;;2.45;0.70;;;12.80;99.90;;;;;;5040579;28;20546;-45
2022/05/30 07:43:53;;;;;;;3.42;0.95;;;12.60;99.90;;;;;;5038133;28;20080;-47
2022/05/30 07:46:19;;;;;;;0.90;0.55;;;12.60;99.90;;;;;;5016056;28;20161;-46
2022/05/30 07:48:45;;;;;;;1.75;0.73;;;12.50;99.90;;;;;;5021091;28;20430;-48
2022/05/30 07:51:13;;;;;;;1.15;0.57;;;12.50;99.90;;;;;;5021134;28;20377;-46
2022/05/30 07:53:40;;;;;;;1.52;0.70;;;12.50;99.90;;;;;;5018811;28;20053;-48
2022/05/30 07:56:12;;;;;;;1.92;0.70;;;12.50;99.90;;;;;;5021252;28;20098;-47
2022/05/30 07:58:38;;;;;;;2.47;0.85;;;12.70;99.90;;;;;;5015578;28;20049;-44
2022/05/30 08:01:10;;;;;;;3.15;1.20;;;12.70;99.90;;;;;;5020032;28;20488;-45
2022/05/30 08:03:36;;;;;;;3.55;1.05;;;12.90;99.90;;;;;;5020906;28;20053;-44
2022/05/30 08:06:07;;;;;;;3.70;0.90;;;13.30;99.90;;;;;;5021464;28;20133;-45
2022/05/30 08:08:33;;;;;;;3.95;1.33;;;13.70;99.90;;;;;;5020017;28;20057;-47
2022/05/30 08:10:58;;;;;;;3.63;0.90;;;14.10;99.90;;;;;;5020704;28;20057;-46
2022/05/30 08:13:25;;;;;;;2.60;1.00;;;14.60;99.90;;;;;;5020750;28;20052;-46
2022/05/30 08:15:51;;;;;;;3.38;1.25;;;15.10;99.90;;;;;;5020843;28;20049;-46
2022/05/30 08:18:18;;;;;;;3.10;1.10;;;15.30;99.90;;;;;;5019946;28;20499;-47
2022/05/30 08:20:45;;;;;;;3.30;1.45;;;15.20;99.90;;;;;;5020564;28;20053;-46
2022/05/30 08:23:17;;;;;;;2.78;0.70;;;15.10;99.90;;;;;;5020150;28;20435;-44
2022/05/30 08:25:45;;;;;;;2.20;0.60;;;14.80;99.90;;;;;;5021454;28;20051;-48
2022/05/30 08:28:11;;;;;;;3.78;1.00;;;14.50;99.90;;;;;;5020376;28;20507;-45
2022/05/30 08:30:40;;;;;;;2.40;0.80;;;14.30;99.90;;;;;;5020196;28;20111;-44
2022/05/30 08:33:15;;;;;;;2.30;0.77;;;14.20;99.90;;;;;;5020766;28;20392;-45
2022/05/30 08:35:41;;;;;;;3.97;0.70;;;14.20;99.90;;;;;;5024808;28;20049;-46
2022/05/30 08:38:07;;;;;;;3.22;0.80;;;14.30;99.90;;;;;;5025228;28;20057;-44
2022/05/30 08:43:37;;;;;;;3.80;0.90;;;14.40;99.90;;;;;;5024250;28;20057;-47
2022/05/30 08:46:16;;;;;;;3.53;0.70;;;14.60;99.90;;;;;;5036173;28;20068;-45
2022/05/30 08:48:47;;;;;;;2.22;0.70;;;14.60;99.90;;;;;;5046472;28;20076;-47
2022/05/30 08:51:40;;;;;;;1.58;0.75;;;14.70;99.90;;;;;;5044928;28;20044;-46
2022/05/30 08:54:27;;;;;;;2.72;1.20;;;14.90;99.90;;;;;;5044521;28;20106;-48
2022/05/30 08:56:56;;;;;;;2.80;0.90;;;15.00;99.90;;;;;;5019667;28;20048;-46
2022/05/30 08:59:41;;;;;;;2.03;0.80;;;15.10;99.90;;;;;;5043343;28;20041;-48
2022/05/30 09:02:33;;;;;;;3.08;1.02;;;15.30;99.90;;;;;;5043046;28;20110;-47
2022/05/30 09:05:07;;;;;;;6.55;1.45;;;15.10;99.90;;;;;;5043622;28;20061;-44
2022/05/30 09:07:49;;;;;;;2.83;0.98;;;15.40;99.90;;;;;;5044351;28;20049;-49
2022/05/30 09:10:35;;;;;;;3.58;1.02;;;15.60;99.90;;;;;;5043659;28;20098;-45
2022/05/30 09:13:14;;;;;;;4.07;1.10;;;15.70;99.90;;;;;;5025581;28;20049;-47
2022/05/30 09:16:16;;;;;;;3.45;1.10;;;15.70;99.90;;;;;;5043717;28;20144;-45
2022/05/30 09:18:46;;;;;;;3.72;1.25;;;15.80;99.90;;;;;;5043000;28;20527;-49
2022/05/30 09:21:17;;;;;;;4.45;1.38;;;16.10;99.90;;;;;;5042716;28;20049;-46
2022/05/30 09:23:43;;;;;;;5.57;1.30;;;16.10;99.90;;;;;;5041495;28;20052;-45
2022/05/30 09:26:16;;;;;;;2.45;0.95;;;16.20;99.90;;;;;;5043181;28;20061;-44
2022/05/30 09:28:44;;;;;;;4.82;1.30;;;16.20;99.90;;;;;;5043328;28;20045;-45
2022/05/30 09:31:41;;;;;;;4.13;1.23;;;16.30;99.90;;;;;;5042519;28;20120;-46
2022/05/30 09:34:31;;;;;;;2.65;1.10;;;16.60;99.90;;;;;;5041941;28;20048;-44
2022/05/30 09:36:57;;;;;;;3.05;0.70;;;17.00;99.90;;;;;;5042377;28;20045;-43
2022/05/30 09:39:23;;;;;;;1.98;0.60;;;17.30;99.90;;;;;;5042504;28;20503;-48
2022/05/30 09:42:01;;;;;;;0.85;0.52;;;17.80;99.90;;;;;;5042460;28;20060;-46
2022/05/30 09:44:42;;;;;;;1.88;0.98;;;18.20;99.90;;;;;;5042234;28;20052;-47
2022/05/30 09:47:17;;;;;;;4.78;1.00;;;18.10;99.90;;;;;;5003522;28;20364;-45
2022/05/30 09:49:46;;;;;;;4.65;1.33;;;17.50;99.90;;;;;;4999272;28;20053;-45
2022/05/30 09:52:34;;;;;;;3.25;1.10;;;16.90;99.90;;;;;;5001066;28;20170;-45
2022/05/30 09:55:01;;;;;;;6.38;3.72;;;16.40;99.90;;;;;;5003245;28;20058;-48
2022/05/30 09:57:41;;;;;;;7.28;4.18;;;15.80;99.90;;;;;;5003541;28;20054;-46
2022/05/30 10:00:17;;;;;;;4.25;1.88;;;15.40;99.90;;;;;;5004109;28;20057;-45
2022/05/30 10:02:46;;;;;;;3.50;1.33;;;15.00;99.90;;;;;;4999220;28;20082;-45
2022/05/30 10:05:21;;;;;;;3.53;1.20;;;14.70;99.90;;;;;;5004023;28;20046;-47
2022/05/30 10:07:51;;;;;;;3.55;0.95;;;14.60;99.90;;;;;;5003278;28;20701;-50
2022/05/30 10:10:36;;;;;;;5.47;0.95;;;14.40;99.90;;;;;;5001792;28;20108;-48
2022/05/30 10:13:05;;;;;;;3.10;1.00;;;14.30;99.90;;;;;;5002784;28;20049;-45
2022/05/30 10:15:35;;;;;;;3.17;1.00;;;14.10;99.90;;;;;;5003404;28;20049;-49
2022/05/30 10:18:13;;;;;;;2.25;0.80;;;14.10;99.90;;;;;;5003130;28;20188;-46
2022/05/30 10:20:54;;;;;;;2.90;1.10;;;14.10;99.90;;;;;;5003246;28;20058;-46
2022/05/30 10:30:06;;;;;;;2.75;1.00;;;14.30;99.90;;;;;;4968328;28;20046;-47
2022/05/30 10:32:46;;;;;;;3.10;1.17;;;14.50;99.90;;;;;;4980494;28;20156;-44
2022/05/30 10:35:42;;;;;;;5.45;1.00;;;14.60;99.90;;;;;;4980185;28;20176;-46
2022/05/30 10:38:27;;;;;;;3.13;0.95;;;14.80;99.90;;;;;;4978862;28;20505;-44
2022/05/30 10:40:56;;;;;;;4.15;1.02;;;15.00;99.90;;;;;;4975508;28;20062;-45
2022/05/30 10:43:42;;;;;;;3.20;1.10;;;15.10;99.90;;;;;;4974800;28;20393;-42
2022/05/30 10:46:15;;;;;;;3.95;0.88;;;15.10;99.90;;;;;;4986939;28;20516;-44
2022/05/30 10:48:44;;;;;;;;;;;15.10;99.90;;;;;;4993728;28;20046;-46
2022/05/30 10:51:17;;;;;;;1.95;0.90;;;15.20;99.90;;;;;;4994938;28;19925;-45
2022/05/30 10:53:48;;;;;;;4.15;1.33;;;15.30;99.90;;;;;;4995015;28;20474;-42
2022/05/30 10:56:27;;;;;;;3.33;1.10;;;15.40;99.90;;;;;;4993234;28;20089;-47
2022/05/30 10:59:14;;;;;;;5.97;1.40;;;15.40;99.90;;;;;;4994193;28;20053;-45
2022/05/30 11:02:05;;;;;;;8.77;1.30;;;15.60;99.90;;;;;;4997488;28;20193;-45
2022/05/30 11:04:59;;;;;;;5.15;1.25;;;15.70;99.90;;;;;;4996034;28;20109;-46
2022/05/30 11:07:46;;;;;;;3.67;1.27;;;15.90;99.90;;;;;;5004632;28;20062;-47
2022/05/30 11:10:33;;;;;;;3.47;1.08;;;15.90;99.90;;;;;;5017864;28;20430;-46
2022/05/30 11:13:38;;;;;;;3.10;1.17;;;15.70;99.90;;;;;;5025494;28;20049;-45
2022/05/30 11:16:40;;;;;;;4.38;1.20;;;15.80;99.90;;;;;;4940732;29;20061;-47
2022/05/30 11:19:39;;;;;;;6.75;1.50;;;15.90;99.90;;;;;;4937786;29;20055;-47
2022/05/30 11:22:17;;;;;;;5.75;1.33;;;15.90;99.90;;;;;;4883967;29;21011;-43
2022/05/30 11:24:49;;;;;;;5.93;1.27;;;16.00;99.90;;;;;;4877059;29;20563;-47
2022/05/30 11:27:21;;;;;;;4.97;1.55;;;16.00;99.90;;;;;;4882775;29;20146;-48
2022/05/30 11:30:13;;;;;;;4.63;1.48;;;16.10;99.90;;;;;;4882502;29;20551;-49
2022/05/30 11:32:49;;;;;;;5.35;1.88;;;16.20;99.90;;;;;;4866271;29;20539;-46
2022/05/30 11:35:35;;;;;;;4.25;1.35;;;16.20;99.90;;;;;;4882008;29;20060;-45
2022/05/30 11:38:01;;;;;;;3.20;1.45;;;16.50;99.90;;;;;;4880860;29;20397;-48
2022/05/30 11:40:47;;;;;;;4.22;1.33;;;16.30;99.90;;;;;;4879342;29;20121;-46
2022/05/30 11:43:24;;;;;;;4.75;1.45;;;16.40;99.90;;;;;;4864853;29;20531;-46
2022/05/30 11:46:17;;;;;;;5.53;1.67;;;16.20;99.90;;;;;;4872664;29;20118;-45
2022/05/30 11:49:13;;;;;;;6.03;1.60;;;16.10;99.90;;;;;;4862039;29;20056;-46
2022/05/30 11:51:44;;;;;;;3.65;1.30;;;15.80;99.90;;;;;;4902427;29;20091;-45
2022/05/30 11:54:16;;;;;;;2.70;1.20;;;15.60;99.90;;;;;;4887231;29;20056;-46
2022/05/30 11:57:00;;;;;;;3.10;1.20;;;15.30;99.90;;;;;;4901915;29;20059;-47
2022/05/30 11:59:36;;;;;;;7.15;1.65;;;15.20;99.90;;;;;;4919706;29;20306;-45
2022/05/30 12:02:11;;;;;;;3.97;1.35;;;14.90;99.90;;;;;;4905894;29;20070;-46
2022/05/30 12:05:04;;;;;;;4.68;1.35;;;14.80;99.90;;;;;;4932687;29;20073;-48
2022/05/30 12:07:41;;;;;;;7.00;1.38;;;14.70;99.90;;;;;;4940804;28;20430;-45
2022/05/30 12:10:25;;;;;;;4.55;1.33;;;14.50;99.90;;;;;;4926910;29;20066;-43
2022/05/30 12:13:18;;;;;;;3.85;1.70;;;14.30;99.90;;;;;;4924539;29;20489;-45
2022/05/30 12:16:16;;;;;;;4.35;1.20;;;14.20;99.90;;;;;;4911259;29;20474;-46
2022/05/30 12:24:52;;;;;;;3.47;1.48;;;13.80;99.90;;;;;;4894259;29;20071;-46
2022/05/30 12:27:37;;;;;;;4.72;1.65;;;13.80;99.90;;;;;;4909262;29;20104;-50
2022/05/30 12:30:15;;;;;;;2.50;1.65;;;13.70;99.90;;;;;;4983616;28;20054;-50
2022/05/30 12:32:45;;;;;;;6.63;1.70;;;13.70;99.90;;;;;;4959955;28;20047;-48
2022/05/30 12:35:14;;;;;;;4.43;1.38;;;13.60;99.90;;;;;;4960447;28;20061;-49
2022/05/30 12:37:58;;;;;;;5.45;2.65;;;13.60;99.90;;;;;;4963219;28;20050;-48
2022/05/30 12:40:27;;;;;;;5.63;1.40;;;13.70;99.90;;;;;;4963002;28;20051;-47
2022/05/30 12:43:15;;;;;;;2.75;1.35;;;13.80;99.90;;;;;;4960579;28;20615;-47
2022/05/30 12:45:46;;;;;;;3.67;1.70;;;13.70;99.90;;;;;;4967921;28;20046;-46
2022/05/30 12:48:21;;;;;;;4.93;1.50;;;13.90;99.90;;;;;;4981973;28;20119;-46
2022/05/30 12:50:52;;;;;;;3.17;1.27;;;14.00;99.90;;;;;;4982117;28;20058;-47
2022/05/30 12:53:21;;;;;;;3.13;1.50;;;14.10;99.90;;;;;;4965003;28;20204;-47
2022/05/30 12:55:52;;;;;;;5.18;1.35;;;14.30;99.90;;;;;;4992661;28;20504;-45
2022/05/30 12:58:36;;;;;;;4.32;1.45;;;14.60;99.90;;;;;;5003739;28;20129;-47
2022/05/30 13:01:21;;;;;;;3.45;1.20;;;14.80;99.90;;;;;;5002761;28;20054;-44
2022/05/30 13:04:13;;;;;;;4.28;1.27;;;14.90;99.90;;;;;;4998717;28;20057;-47
2022/05/30 13:07:05;;;;;;;4.38;1.25;;;15.10;99.90;;;;;;4985145;28;20057;-45
2022/05/30 13:09:37;;;;;;;4.90;1.50;;;15.40;99.90;;;;;;4910479;29;20059;-46
2022/05/30 13:12:11;;;;;;;4.40;1.65;;;15.70;99.90;;;;;;4927162;29;20058;-46
2022/05/30 13:14:40;;;;;;;3.22;1.17;;;15.90;99.90;;;;;;4955282;28;20054;-45
2022/05/30 13:17:51;;;;;;;7.25;2.08;;;16.00;99.90;;;;;;4963101;28;20502;-47
2022/05/30 13:20:38;;;;;;;4.80;1.42;;;16.00;99.90;;;;;;4958620;28;20151;-46
2022/05/30 13:23:06;;;;;;;4.75;1.10;;;16.00;99.90;;;;;;4941811;28;20055;-46
2022/05/30 13:25:51;;;;;;;4.55;1.42;;;16.00;99.90;;;;;;4961226;28;20342;-45
2022/05/30 13:28:31;;;;;;;6.00;1.20;;;15.90;99.90;;;;;;4956657;28;20054;-49
2022/05/30 13:31:00;;;;;;;3.05;1.30;;;15.80;99.90;;;;;;4960853;28;20054;-49
2022/05/30 13:33:29;;;;;;;2.72;1.30;;;15.80;99.90;;;;;;4960598;28;21055;-49
2022/05/30 13:36:04;;;;;;;5.63;1.60;;;15.60;99.90;;;;;;4958974;28;20180;-49
2022/05/30 13:38:42;;;;;;;3.13;1.50;;;15.50;99.90;;;;;;4958615;28;20038;-48
2022/05/30 13:41:24;;;;;;;4.13;1.85;;;15.40;99.90;;;;;;4963259;28;20692;-47
2022/05/30 13:43:51;;;;;;;4.63;1.70;;;15.30;99.90;;;;;;4957502;28;20054;-49